Time;durP1;ratioP1;P1;durP2;ratioP2;P2;SDS_P1;SDS_P2;PMS_P1;PMS_P2;Temp;Humidity;BMP_temperature;BMP_pressure;BME280_temperature;BME280_humidity;BME280_pressure;Samples;Min_cycle;Max_cycle;Signal;HPM_P1;HPM_P2
2022/01/19 00:01:19;;;;;;;7.25;4.38;;;;;;;18.73;45.05;103179.59;5053682;28;20029;-65
2022/01/19 00:03:47;;;;;;;8.82;4.97;;;;;;;18.70;45.00;103171.81;5053422;28;20036;-65
2022/01/19 00:06:14;;;;;;;8.75;4.80;;;;;;;18.66;44.87;103161.41;5053741;28;20112;-65
2022/01/19 00:08:40;;;;;;;10.80;5.30;;;;;;;18.64;45.18;103151.81;5054164;28;20029;-65
2022/01/19 00:11:05;;;;;;;11.40;5.25;;;;;;;18.61;44.75;103155.50;5053236;28;20211;-65
2022/01/19 00:13:31;;;;;;;9.30;4.82;;;;;;;18.58;45.04;103158.28;5053438;28;20420;-65
2022/01/19 00:15:57;;;;;;;9.40;5.07;;;;;;;18.57;44.87;103166.25;5052904;28;20079;-65
2022/01/19 00:18:24;;;;;;;10.45;4.88;;;;;;;18.55;44.86;103162.81;5053494;28;20037;-65
2022/01/19 00:20:51;;;;;;;8.20;4.68;;;;;;;18.52;44.95;103161.19;5053834;28;20055;-65
2022/01/19 00:23:19;;;;;;;10.63;5.43;;;;;;;18.50;44.73;103163.06;5052771;28;20070;-65
2022/01/19 00:25:49;;;;;;;10.40;5.03;;;;;;;18.47;45.02;103153.47;5053650;28;20032;-65
2022/01/19 00:28:15;;;;;;;9.23;4.63;;;;;;;18.44;44.63;103137.78;5053363;28;20048;-65
2022/01/19 00:30:41;;;;;;;8.30;4.43;;;;;;;18.43;44.60;103124.66;5052648;28;20033;-65
2022/01/19 00:33:07;;;;;;;9.52;4.82;;;;;;;18.41;44.53;103100.13;5053735;28;20108;-65
2022/01/19 00:35:36;;;;;;;9.20;4.90;;;;;;;18.37;44.68;103082.69;5053629;28;20082;-65
2022/01/19 00:38:06;;;;;;;7.50;4.85;;;;;;;18.37;44.79;103075.63;5052500;28;20053;-65
2022/01/19 00:40:31;;;;;;;9.40;5.00;;;;;;;18.34;44.84;103064.34;5053283;28;20064;-65
2022/01/19 00:42:57;;;;;;;8.55;4.45;;;;;;;18.30;44.79;103051.31;5053191;28;20492;-65
2022/01/19 00:45:23;;;;;;;9.82;4.70;;;;;;;18.30;44.79;103053.09;5052096;28;20032;-65
2022/01/19 00:47:49;;;;;;;8.63;5.00;;;;;;;18.29;44.67;103061.94;5053415;28;20033;-65
2022/01/19 00:50:20;;;;;;;7.40;4.78;;;;;;;18.24;44.61;103064.78;5052939;28;20033;-65
2022/01/19 00:52:46;;;;;;;9.52;4.72;;;;;;;18.24;44.48;103080.63;5052524;28;20040;-65
2022/01/19 00:55:12;;;;;;;9.10;4.60;;;;;;;18.23;44.40;103080.69;5052939;28;20104;-65
2022/01/19 00:57:38;;;;;;;9.02;4.05;;;;;;;18.21;44.81;103082.56;5052941;28;20028;-65
2022/01/19 01:00:05;;;;;;;8.98;4.95;;;;;;;18.19;44.60;103090.53;5052342;28;20040;-65
2022/01/19 01:02:31;;;;;;;10.30;5.22;;;;;;;18.18;44.64;103094.09;5052740;28;20025;-65
2022/01/19 01:04:56;;;;;;;9.68;4.70;;;;;;;18.16;44.42;103087.19;5053003;28;20024;-65
2022/01/19 01:07:21;;;;;;;9.45;5.00;;;;;;;18.14;44.54;103079.34;5051986;28;20060;-65
2022/01/19 01:09:47;;;;;;;11.07;4.80;;;;;;;18.13;44.79;103073.22;5052729;28;20388;-65
2022/01/19 01:12:19;;;;;;;10.75;5.22;;;;;;;18.12;44.55;103065.38;5051710;28;20025;-65
2022/01/19 01:20:16;;;;;;;9.13;5.20;;;;;;;18.05;44.49;103038.41;5051901;28;20105;-65
2022/01/19 01:22:42;;;;;;;9.48;5.18;;;;;;;18.04;44.50;103028.78;5052474;28;20103;-65
2022/01/19 01:25:08;;;;;;;9.57;5.20;;;;;;;18.04;44.54;103027.91;5052518;28;20037;-65
2022/01/19 01:27:33;;;;;;;10.63;5.15;;;;;;;18.02;44.61;103011.31;5052069;28;20052;-65
2022/01/19 01:29:59;;;;;;;8.60;5.28;;;;;;;18.00;44.48;102999.97;5052659;28;20068;-65
2022/01/19 01:32:24;;;;;;;9.43;4.80;;;;;;;17.99;44.38;103000.88;5052332;28;20072;-65
2022/01/19 01:34:51;;;;;;;10.52;5.50;;;;;;;17.98;44.60;102996.56;5051746;28;20021;-64
2022/01/19 01:37:17;;;;;;;9.98;5.10;;;;;;;17.96;44.40;102980.81;5052308;28;20098;-64
2022/01/19 01:39:43;;;;;;;8.75;5.10;;;;;;;17.94;44.47;102964.16;5053057;28;20031;-65
2022/01/19 01:42:10;;;;;;;10.32;5.55;;;;;;;17.93;44.74;102951.94;5051509;28;20037;-65
2022/01/19 01:44:37;;;;;;;10.27;5.38;;;;;;;17.91;44.28;102946.72;5052545;28;20033;-65
2022/01/19 01:47:03;;;;;;;12.75;5.60;;;;;;;17.90;44.53;102952.91;5052477;28;20039;-66
2022/01/19 01:54:59;;;;;;;9.13;5.30;;;;;;;17.86;44.53;102953.09;5051947;28;20048;-65
2022/01/19 01:57:24;;;;;;;8.18;5.15;;;;;;;17.84;44.53;102957.59;5052114;28;20020;-65
2022/01/19 01:59:55;;;;;;;12.30;5.43;;;;;;;17.82;44.46;102956.81;5052186;28;20334;-66
2022/01/19 02:02:21;;;;;;;8.88;5.07;;;;;;;17.82;44.37;102955.03;5051092;28;20029;-66
2022/01/19 02:04:46;;;;;;;9.90;4.88;;;;;;;17.83;44.17;102954.13;5052468;28;20025;-65
2022/01/19 02:07:34;;;;;;;7.38;4.88;;;;;;;17.85;44.13;102943.47;5052094;28;20021;-65
2022/01/19 02:10:03;;;;;;;8.00;5.03;;;;;;;17.86;44.37;102932.00;5051882;28;20072;-65
2022/01/19 02:23:36;;;;;;;10.35;4.82;;;;;;;17.93;43.71;102922.91;5055256;28;20043;-65
2022/01/19 02:26:07;;;;;;;8.35;4.90;;;;;;;17.94;43.76;102916.69;5056266;28;20029;-64
2022/01/19 02:36:52;;;;;;;9.27;4.78;;;;;;;17.95;43.65;102865.66;5055538;28;20035;-65
2022/01/19 02:42:10;;;;;;;10.02;5.45;;;;;;;17.93;43.37;102843.78;5055566;28;20082;-65
2022/01/19 02:49:45;;;;;;;9.75;5.20;;;;;;;17.91;43.62;102833.28;5055323;28;20025;-65
2022/01/19 02:52:11;;;;;;;9.65;5.35;;;;;;;17.91;43.22;102833.28;5054234;28;20028;-65
2022/01/19 02:54:37;;;;;;;8.80;4.80;;;;;;;17.89;43.47;102829.00;5055472;28;20021;-65
2022/01/19 02:57:03;;;;;;;8.55;4.75;;;;;;;17.89;43.16;102837.75;5055475;28;20043;-65
2022/01/19 02:59:50;;;;;;;7.78;4.80;;;;;;;17.90;43.63;102843.91;5054461;28;20112;-65
2022/01/19 03:10:30;;;;;;;8.50;5.00;;;;;;;17.92;43.18;102811.25;5054611;28;20040;-65
2022/01/19 03:12:56;;;;;;;8.13;5.90;;;;;;;17.92;43.07;102803.31;5054130;28;20029;-65
2022/01/19 03:15:21;;;;;;;8.65;4.85;;;;;;;17.93;42.93;102797.13;5054481;28;20057;-65
2022/01/19 03:17:46;;;;;;;8.02;5.13;;;;;;;17.94;42.68;102792.69;5054875;28;20388;-65
2022/01/19 03:20:12;;;;;;;12.35;5.65;;;;;;;17.93;42.78;102796.28;5053947;28;20025;-65
2022/01/19 03:22:58;;;;;;;8.27;4.70;;;;;;;17.94;42.99;102792.69;5054786;28;20108;-65
2022/01/19 03:25:23;;;;;;;8.52;4.57;;;;;;;17.92;42.86;102784.84;5054786;28;20032;-65
2022/01/19 03:27:48;;;;;;;9.10;5.07;;;;;;;17.92;42.95;102782.22;5053905;28;20037;-65
2022/01/19 03:30:16;;;;;;;8.00;4.53;;;;;;;17.92;42.73;102781.38;5054497;28;20811;-66
2022/01/19 03:32:42;;;;;;;9.82;4.85;;;;;;;17.91;42.86;102774.38;5054536;28;20340;-65
2022/01/19 03:35:09;;;;;;;8.35;4.80;;;;;;;17.90;42.79;102770.91;5053608;28;20032;-65
2022/01/19 03:37:34;;;;;;;8.88;4.88;;;;;;;17.89;42.54;102766.53;5054626;28;20045;-66
2022/01/19 03:40:00;;;;;;;7.88;4.70;;;;;;;17.89;42.35;102765.69;5054401;28;20021;-65
2022/01/19 03:42:25;;;;;;;8.32;4.57;;;;;;;17.87;43.12;102757.00;5057179;28;20072;-65
2022/01/19 03:44:50;;;;;;;7.53;4.75;;;;;;;17.87;42.92;102759.63;5058450;28;20029;-65
2022/01/19 03:47:17;;;;;;;9.07;5.33;;;;;;;17.87;42.92;102757.00;5057842;28;20028;-65
2022/01/19 03:49:42;;;;;;;8.93;5.22;;;;;;;17.88;42.88;102750.78;5059582;28;20331;-66
2022/01/19 03:52:08;;;;;;;10.00;4.80;;;;;;;17.88;42.78;102743.75;5058676;28;20025;-65
2022/01/19 03:54:35;;;;;;;9.20;4.72;;;;;;;17.90;42.94;102727.84;5059593;28;20033;-65
2022/01/19 03:57:01;;;;;;;9.18;4.28;;;;;;;17.90;43.07;102725.22;5059588;28;20040;-65
2022/01/19 03:59:27;;;;;;;8.25;4.95;;;;;;;17.90;42.55;102704.97;5054294;28;20471;-65
2022/01/19 04:01:57;;;;;;;9.45;4.63;;;;;;;17.92;42.85;102708.34;5053479;28;20065;-65
2022/01/19 04:04:38;;;;;;;7.85;4.72;;;;;;;17.91;42.81;102705.81;5053750;28;20029;-66
2022/01/19 04:09:34;;;;;;;8.02;4.63;;;;;;;17.91;42.41;102706.69;5053253;28;20029;-65
2022/01/19 04:12:00;;;;;;;9.32;4.85;;;;;;;17.92;42.48;102703.09;5054143;28;20033;-65
2022/01/19 04:14:31;;;;;;;7.60;4.72;;;;;;;17.92;42.86;102708.34;5053588;28;20116;-65
2022/01/19 04:17:03;;;;;;;7.53;4.43;;;;;;;17.94;42.63;102709.16;5053195;28;20063;-65
2022/01/19 04:21:56;;;;;;;9.63;4.78;;;;;;;17.95;42.43;102687.09;5053539;28;20032;-65
2022/01/19 04:24:23;;;;;;;8.30;4.70;;;;;;;17.96;42.63;102693.25;5052733;28;20024;-64
2022/01/19 04:29:33;;;;;;;8.93;4.70;;;;;;;17.97;42.71;102694.09;5053090;28;20040;-64
2022/01/19 04:31:58;;;;;;;10.95;5.40;;;;;;;17.97;42.70;102691.47;5053354;28;20025;-64
2022/01/19 04:34:23;;;;;;;8.70;4.72;;;;;;;17.96;42.34;102695.88;5052618;28;20072;-64
2022/01/19 04:43:46;;;;;;;9.40;4.67;;;;;;;17.94;42.33;102705.66;5053099;28;20029;-66
2022/01/19 04:45:09;;;;;;;8.52;5.22;;;;;;;17.94;42.60;102708.28;5053122;28;20200;-66
2022/01/19 04:48:13;;;;;;;10.13;4.95;;;;;;;17.95;42.60;102710.00;5053131;28;20465;-66
2022/01/19 05:01:44;;;;;;;11.60;6.38;;;;;;;17.95;42.28;102699.44;5053068;28;20124;-65
2022/01/19 05:06:42;;;;;;;11.55;6.20;;;;;;;17.94;41.99;102684.53;5052666;28;20029;-65
2022/01/19 05:14:32;;;;;;;10.52;6.97;;;;;;;17.94;42.21;102677.50;5052694;28;20047;-65
2022/01/19 05:16:59;;;;;;;10.65;6.68;;;;;;;17.95;42.17;102673.91;5052904;28;20025;-65
2022/01/19 05:19:25;;;;;;;9.50;6.30;;;;;;;17.95;42.15;102680.97;5051653;28;20017;-65
2022/01/19 05:21:53;;;;;;;10.60;6.50;;;;;;;17.97;42.17;102680.91;5052489;28;20078;-64
2022/01/19 05:24:18;;;;;;;10.18;6.20;;;;;;;17.98;42.09;102679.97;5052327;28;20051;-67
2022/01/19 05:26:45;;;;;;;12.00;6.73;;;;;;;17.97;42.03;102681.75;5051707;28;20037;-65
2022/01/19 05:29:10;;;;;;;11.23;6.50;;;;;;;17.96;42.04;102685.34;5052349;28;20650;-65
2022/01/19 05:31:35;;;;;;;9.25;6.28;;;;;;;17.97;42.23;102687.03;5052458;28;20028;-65
2022/01/19 05:34:01;;;;;;;11.60;6.82;;;;;;;17.96;42.02;102680.06;5051603;28;20032;-65
2022/01/19 05:36:26;;;;;;;11.55;6.50;;;;;;;17.95;42.36;102684.47;5052061;28;20040;-65
2022/01/19 05:38:51;;;;;;;11.32;6.50;;;;;;;17.96;42.45;102682.69;5052256;28;20041;-65
2022/01/19 05:41:16;;;;;;;9.02;5.88;;;;;;;17.97;42.72;102679.09;5051361;28;20039;-65
2022/01/19 05:43:42;;;;;;;8.75;6.55;;;;;;;17.99;42.79;102679.03;5052598;28;20440;-65
2022/01/19 05:46:07;;;;;;;9.32;6.28;;;;;;;17.99;42.75;102681.66;5052252;28;20457;-65
2022/01/19 05:48:33;;;;;;;11.20;6.22;;;;;;;18.00;42.54;102678.13;5052814;28;20416;-65
2022/01/19 05:50:58;;;;;;;9.43;6.10;;;;;;;18.00;42.63;102676.31;5056434;28;20025;-65
2022/01/19 05:53:23;;;;;;;9.73;6.47;;;;;;;18.00;42.40;102670.19;5055760;28;20394;-65
2022/01/19 05:55:49;;;;;;;9.25;6.15;;;;;;;18.01;42.16;102669.25;5055546;28;20262;-64
2022/01/19 05:58:14;;;;;;;11.25;6.30;;;;;;;18.00;42.27;102668.41;5056081;28;20082;-65
2022/01/19 06:00:40;;;;;;;9.57;6.18;;;;;;;17.99;42.19;102663.19;5055623;28;20059;-65
2022/01/19 06:03:05;;;;;;;10.93;6.47;;;;;;;17.98;42.07;102662.34;5056256;28;20028;-64
2022/01/19 06:05:33;;;;;;;9.73;5.75;;;;;;;17.98;42.86;102675.56;5056165;28;20104;-64
2022/01/19 06:10:44;;;;;;;9.32;5.90;;;;;;;18.02;43.23;102666.53;5056305;28;20049;-65
2022/01/19 06:13:14;;;;;;;8.68;5.05;;;;;;;18.05;43.33;102663.72;5055839;28;20044;-65
2022/01/19 06:15:40;;;;;;;8.88;5.70;;;;;;;18.09;43.58;102664.44;5055208;28;20028;-66
2022/01/19 06:18:05;;;;;;;8.38;6.00;;;;;;;18.10;43.46;102651.16;5056061;28;20024;-64
2022/01/19 06:20:34;;;;;;;8.85;5.32;;;;;;;18.14;43.81;102649.22;5055407;28;20027;-65
2022/01/19 06:22:59;;;;;;;8.45;4.93;;;;;;;18.16;43.96;102651.78;5055325;28;20025;-65
2022/01/19 06:25:24;;;;;;;8.75;5.00;;;;;;;18.19;44.38;102646.34;5055559;28;20055;-65
2022/01/19 06:27:50;;;;;;;7.15;4.45;;;;;;;18.21;44.53;102642.66;5055646;28;20041;-64
2022/01/19 06:30:15;;;;;;;8.50;4.80;;;;;;;18.23;44.72;102638.19;5054708;28;20025;-64
2022/01/19 06:32:40;;;;;;;8.13;4.63;;;;;;;18.26;44.44;102637.13;5055754;28;20603;-65
2022/01/19 06:35:07;;;;;;;7.70;4.50;;;;;;;18.27;44.62;102637.06;5055606;28;20067;-64
2022/01/19 06:37:33;;;;;;;8.68;4.70;;;;;;;18.29;44.73;102629.06;5054654;28;20500;-65
2022/01/19 06:39:58;;;;;;;9.90;4.90;;;;;;;18.29;44.65;102619.38;5056009;28;20064;-64
2022/01/19 06:42:23;;;;;;;8.00;5.20;;;;;;;18.32;44.45;102620.97;5055244;28;20033;-64
2022/01/19 06:44:48;;;;;;;8.02;5.10;;;;;;;18.33;44.42;102616.56;5054823;28;20123;-64
2022/01/19 06:47:14;;;;;;;7.35;4.45;;;;;;;18.34;44.16;102611.22;5055091;28;20518;-64
2022/01/19 06:49:39;;;;;;;6.80;4.47;;;;;;;18.36;44.42;102616.38;5055410;28;20031;-65
2022/01/19 06:52:04;;;;;;;7.43;4.57;;;;;;;18.36;44.28;102603.19;5054492;28;20277;-65
2022/01/19 06:54:30;;;;;;;8.32;4.68;;;;;;;18.38;44.50;102606.59;5054965;28;20270;-65
2022/01/19 06:56:55;;;;;;;7.75;4.40;;;;;;;18.39;44.97;102601.25;5054560;28;20488;-64
2022/01/19 06:59:24;;;;;;;6.55;4.18;;;;;;;18.41;44.69;102599.38;5054390;28;20044;-65
2022/01/19 07:01:52;;;;;;;7.47;4.38;;;;;;;18.42;44.92;102595.81;5055092;28;20530;-64
2022/01/19 07:04:17;;;;;;;7.13;4.15;;;;;;;18.43;45.33;102588.72;5053899;28;20040;-65
2022/01/19 07:06:43;;;;;;;9.27;4.32;;;;;;;18.45;44.94;102592.13;5055324;28;20036;-65
2022/01/19 07:09:09;;;;;;;6.90;4.20;;;;;;;18.46;44.90;102580.63;5054909;28;19971;-66
2022/01/19 07:11:36;;;;;;;8.05;4.28;;;;;;;18.46;44.92;102580.63;5054361;28;20295;-66
2022/01/19 07:14:02;;;;;;;7.18;3.72;;;;;;;18.47;45.24;102585.84;5055087;28;20052;-65
2022/01/19 07:16:27;;;;;;;6.70;4.40;;;;;;;18.49;45.04;102572.56;5054632;28;20029;-65
2022/01/19 07:18:55;;;;;;;10.20;4.60;;;;;;;18.49;44.78;102589.22;5054073;28;20100;-65
2022/01/19 07:21:20;;;;;;;7.00;4.20;;;;;;;18.49;44.79;102580.47;5054693;28;20037;-65
2022/01/19 07:23:49;;;;;;;7.73;4.30;;;;;;;18.49;44.57;102580.47;5054852;28;20483;-65
2022/01/19 07:26:14;;;;;;;7.05;3.95;;;;;;;18.51;44.35;102575.09;5053726;28;20266;-65
2022/01/19 07:28:39;;;;;;;7.00;3.90;;;;;;;18.48;44.64;102571.72;5054796;28;20041;-65
2022/01/19 07:31:05;;;;;;;7.88;4.47;;;;;;;18.52;44.52;102571.50;5054582;28;20055;-65
2022/01/19 07:33:30;;;;;;;7.22;3.85;;;;;;;18.52;45.00;102571.50;5053526;28;20040;-66
2022/01/19 07:35:55;;;;;;;7.05;4.03;;;;;;;18.51;44.76;102564.53;5054767;28;20045;-63
2022/01/19 07:38:24;;;;;;;6.73;3.70;;;;;;;18.54;44.98;102573.13;5053964;28;20060;-63
2022/01/19 07:40:50;;;;;;;6.50;3.60;;;;;;;18.57;45.13;102572.13;5053970;28;20289;-64
2022/01/19 07:43:15;;;;;;;6.05;3.42;;;;;;;18.59;45.05;102567.59;5054011;28;20358;-63
2022/01/19 07:45:45;;;;;;;7.05;3.65;;;;;;;18.61;45.15;102563.06;5054423;28;20039;-63
2022/01/19 07:48:10;;;;;;;6.30;3.40;;;;;;;18.62;44.79;102554.22;5053216;28;20108;-64
2022/01/19 07:50:36;;;;;;;5.65;3.03;;;;;;;18.63;45.10;102551.50;5054430;28;20037;-64
2022/01/19 07:53:02;;;;;;;6.22;3.45;;;;;;;18.64;44.81;102553.22;5054090;28;20036;-64
2022/01/19 07:55:27;;;;;;;6.57;3.58;;;;;;;18.66;45.15;102558.41;5054223;28;20045;-64
2022/01/19 07:57:53;;;;;;;5.30;3.00;;;;;;;18.67;45.08;102560.97;5054319;28;20039;-64
2022/01/19 08:00:18;;;;;;;6.35;3.30;;;;;;;18.66;45.11;102553.97;5053052;28;20104;-64
2022/01/19 08:02:45;;;;;;;6.55;2.90;;;;;;;18.68;45.05;102553.88;5053898;28;20488;-64
2022/01/19 08:05:10;;;;;;;6.10;2.92;;;;;;;18.70;45.27;102556.44;5053831;28;20075;-63
2022/01/19 08:07:36;;;;;;;6.55;3.25;;;;;;;18.70;45.18;102544.06;5052890;28;20029;-63
2022/01/19 08:10:04;;;;;;;6.30;2.97;;;;;;;18.72;45.08;102550.13;5054138;28;20041;-63
2022/01/19 08:12:29;;;;;;;6.07;3.35;;;;;;;18.72;45.00;102549.28;5052625;28;20036;-63
2022/01/19 08:14:55;;;;;;;6.22;3.20;;;;;;;18.74;45.30;102550.91;5053392;28;20033;-64
2022/01/19 08:17:20;;;;;;;6.43;2.92;;;;;;;18.73;45.16;102549.19;5053777;28;20078;-64
2022/01/19 08:19:47;;;;;;;7.32;3.13;;;;;;;18.76;45.50;102543.72;5053490;28;20179;-63
2022/01/19 08:22:13;;;;;;;5.28;2.83;;;;;;;18.77;45.28;102540.16;5052626;28;20025;-63
2022/01/19 08:24:38;;;;;;;6.68;2.90;;;;;;;18.78;45.56;102533.06;5053846;28;20074;-64
2022/01/19 08:27:03;;;;;;;7.60;3.07;;;;;;;18.78;45.54;102531.28;5053613;28;20206;-63
2022/01/19 08:29:28;;;;;;;6.35;3.00;;;;;;;18.79;45.43;102533.00;5052557;28;20270;-64
2022/01/19 08:31:54;;;;;;;6.75;2.95;;;;;;;18.79;45.45;102527.72;5053407;28;20389;-64
2022/01/19 08:34:21;;;;;;;6.07;2.92;;;;;;;18.81;45.52;102520.53;5053341;28;20021;-65
2022/01/19 08:36:46;;;;;;;5.95;3.03;;;;;;;18.82;45.48;102526.69;5052695;28;20025;-64
2022/01/19 08:39:11;;;;;;;5.50;2.72;;;;;;;18.83;45.46;102523.09;5053233;28;20041;-64
2022/01/19 08:41:37;;;;;;;6.05;2.63;;;;;;;18.85;45.57;102515.97;5053631;28;20061;-65
2022/01/19 08:44:02;;;;;;;7.40;3.33;;;;;;;18.89;45.56;102527.22;5051777;28;20056;-64
2022/01/19 08:46:28;;;;;;;9.40;2.85;;;;;;;18.89;45.76;102522.78;5052762;28;20089;-65
2022/01/19 08:48:53;;;;;;;5.53;2.58;;;;;;;18.89;45.75;102520.13;5053405;28;20031;-65
2022/01/19 08:51:18;;;;;;;5.57;2.70;;;;;;;18.90;45.50;102510.41;5052251;28;20052;-65
2022/01/19 08:53:43;;;;;;;4.55;2.40;;;;;;;18.89;45.79;102511.38;5053216;28;20064;-65
2022/01/19 08:56:09;;;;;;;6.07;2.72;;;;;;;18.90;45.83;102505.13;5052575;28;20039;-65
2022/01/19 08:58:34;;;;;;;6.33;2.60;;;;;;;18.90;45.71;102503.34;5052456;28;20029;-64
2022/01/19 09:00:59;;;;;;;6.65;2.65;;;;;;;18.91;45.75;102502.38;5051433;28;20349;-62
2022/01/19 09:03:25;;;;;;;6.53;2.88;;;;;;;18.91;45.97;102502.38;5052005;28;20025;-64
2022/01/19 09:05:51;;;;;;;5.03;2.50;;;;;;;18.91;45.97;102494.47;5053129;28;20481;-64
2022/01/19 09:08:17;;;;;;;6.40;2.90;;;;;;;18.92;45.88;102490.06;5052682;28;20075;-68
2022/01/19 09:10:42;;;;;;;5.88;3.05;;;;;;;18.90;45.50;102498.06;5052089;28;20047;-64
2022/01/19 09:13:09;;;;;;;8.13;2.60;;;;;;;18.90;45.64;102486.63;5052498;28;20025;-64
2022/01/19 09:15:35;;;;;;;5.47;2.83;;;;;;;18.90;45.84;102489.28;5052601;28;20033;-63
2022/01/19 09:18:00;;;;;;;6.65;2.65;;;;;;;18.90;45.91;102481.34;5051993;28;20074;-64
2022/01/19 09:20:28;;;;;;;4.80;2.55;;;;;;;18.91;45.85;102490.97;5052555;28;20489;-63
2022/01/19 09:22:54;;;;;;;8.07;2.92;;;;;;;18.91;46.03;102491.81;5052382;28;20025;-64
2022/01/19 09:25:19;;;;;;;8.35;2.90;;;;;;;18.91;46.18;102485.69;5051671;28;20025;-63
2022/01/19 09:27:45;;;;;;;5.53;2.65;;;;;;;18.92;46.05;102487.41;5052626;28;20032;-63
2022/01/19 09:30:16;;;;;;;5.50;2.13;;;;;;;18.92;46.02;102487.41;5052224;28;20112;-64
2022/01/19 09:32:45;;;;;;;5.90;2.50;;;;;;;18.92;45.77;102472.41;5052139;28;20029;-63
2022/01/19 09:35:10;;;;;;;4.97;2.30;;;;;;;18.91;45.79;102473.31;5052436;28;20032;-64
2022/01/19 09:37:38;;;;;;;8.10;3.40;;;;;;;18.91;43.78;102468.03;5052402;28;20045;-65
2022/01/19 09:40:07;;;;;;;6.75;3.10;;;;;;;18.89;44.75;102466.47;5051870;28;20029;-66
2022/01/19 09:42:34;;;;;;;5.80;2.38;;;;;;;18.87;45.55;102471.81;5052462;28;20377;-66
2022/01/19 09:44:59;;;;;;;7.50;2.70;;;;;;;18.87;45.14;102465.66;5052459;28;20487;-65
2022/01/19 09:47:25;;;;;;;7.97;3.50;;;;;;;18.81;44.37;102457.16;5051790;28;20111;-65
2022/01/19 09:49:50;;;;;;;6.75;3.50;;;;;;;18.80;44.89;102447.53;5053035;28;20023;-65
2022/01/19 09:52:15;;;;;;;8.00;3.58;;;;;;;18.79;43.87;102443.19;5052586;28;20025;-64
2022/01/19 09:54:41;;;;;;;9.32;2.83;;;;;;;18.78;45.15;102432.72;5052233;28;20076;-66
2022/01/19 09:57:06;;;;;;;7.85;4.20;;;;;;;18.73;43.43;102427.69;5053120;28;20044;-65
2022/01/19 09:59:31;;;;;;;6.55;2.72;;;;;;;18.72;44.94;102433.91;5052505;28;20091;-66
2022/01/19 10:02:09;;;;;;;5.40;2.63;;;;;;;18.74;45.16;102425.91;5051659;28;20385;-66
2022/01/19 10:04:42;;;;;;;6.85;3.00;;;;;;;18.75;45.20;102415.25;5052409;28;20300;-66
2022/01/19 10:07:21;;;;;;;5.03;2.35;;;;;;;18.77;45.44;102418.66;5051414;28;20104;-66
2022/01/19 10:09:57;;;;;;;7.35;2.40;;;;;;;18.78;45.37;102415.06;5052115;28;20021;-66
2022/01/19 10:18:19;;;;;;;5.95;2.08;;;;;;;18.82;45.76;102408.66;5051866;28;20084;-66
2022/01/19 10:21:03;;;;;;;5.03;2.10;;;;;;;18.83;45.87;102412.16;5051115;28;20477;-66
2022/01/19 10:23:46;;;;;;;7.47;3.17;;;;;;;18.80;44.38;102413.19;5051975;28;20032;-71
2022/01/19 10:26:13;;;;;;;4.95;2.78;;;;;;;18.80;44.72;102415.84;5051815;28;20036;-62
2022/01/19 10:29:01;;;;;;;6.43;3.10;;;;;;;18.76;44.19;102409.03;5051219;28;20041;-67
2022/01/19 10:31:28;;;;;;;6.38;2.80;;;;;;;18.74;44.97;102403.00;5051882;28;20112;-65
2022/01/19 10:34:19;;;;;;;4.97;2.53;;;;;;;18.75;45.42;102402.03;5052037;28;20533;-65
2022/01/19 10:36:55;;;;;;;6.15;2.30;;;;;;;18.77;45.89;102392.25;5054717;28;20025;-66
2022/01/19 10:39:22;;;;;;;5.32;2.10;;;;;;;18.78;45.73;102382.53;5055319;28;20377;-66
2022/01/19 10:42:08;;;;;;;5.38;2.22;;;;;;;18.80;45.52;102383.28;5055605;28;20078;-66
2022/01/19 10:44:39;;;;;;;4.78;2.65;;;;;;;18.78;44.77;102366.69;5055628;28;20044;-67
2022/01/19 10:47:05;;;;;;;6.28;2.50;;;;;;;18.80;45.35;102378.00;5055540;28;20468;-64
2022/01/19 10:49:56;;;;;;;5.28;2.08;;;;;;;18.81;45.58;102372.63;5054441;28;20031;-65
2022/01/19 10:52:55;;;;;;;6.60;2.10;;;;;;;18.82;45.43;102363.75;5055358;28;20094;-64
2022/01/19 10:55:30;;;;;;;6.55;2.03;;;;;;;18.84;45.44;102383.03;5043369;28;20465;-63
2022/01/19 10:57:57;;;;;;;6.57;2.67;;;;;;;18.87;45.78;102387.28;5054387;28;20077;-64
2022/01/19 11:00:25;;;;;;;5.13;2.20;;;;;;;18.89;45.90;102384.56;5055131;28;20037;-65
2022/01/19 11:02:55;;;;;;;5.60;2.10;;;;;;;18.89;46.09;102377.47;5055324;28;20484;-65
2022/01/19 11:05:39;;;;;;;6.78;2.05;;;;;;;18.90;45.84;102362.47;5054770;28;20104;-65
2022/01/19 11:08:04;;;;;;;5.10;1.95;;;;;;;18.90;46.16;102358.06;5055002;28;20092;-65
2022/01/19 11:10:31;;;;;;;6.03;2.20;;;;;;;18.91;46.09;102356.25;5054145;28;20472;-65
2022/01/19 11:12:56;;;;;;;4.53;2.17;;;;;;;18.91;45.79;102354.44;5055142;28;20316;-65
2022/01/19 11:15:22;;;;;;;5.03;1.88;;;;;;;18.92;46.01;102352.69;5054919;28;20473;-64
2022/01/19 11:17:53;;;;;;;9.48;2.22;;;;;;;18.95;45.81;102344.56;5055300;28;20017;-68
2022/01/19 11:20:24;;;;;;;7.80;2.60;;;;;;;19.02;45.53;102340.59;5055324;28;20035;-68
2022/01/19 11:23:00;;;;;;;6.15;2.30;;;;;;;19.11;45.21;102331.25;5055423;28;20025;-65
2022/01/19 11:25:49;;;;;;;5.25;2.20;;;;;;;19.19;45.22;102324.53;5054836;28;20589;-68
2022/01/19 11:28:35;;;;;;;6.63;2.30;;;;;;;19.25;45.07;102322.44;5054672;28;20481;-68
2022/01/19 11:31:10;;;;;;;7.93;2.90;;;;;;;19.28;44.92;102312.56;5054908;28;20025;-69
2022/01/19 11:33:51;;;;;;;9.05;2.88;;;;;;;19.34;44.91;102314.81;5055637;28;20037;-67
2022/01/19 11:36:31;;;;;;;6.53;2.47;;;;;;;19.40;44.83;102305.63;5055025;28;20123;-66
2022/01/19 11:39:02;;;;;;;5.53;2.75;;;;;;;19.43;44.57;102297.50;5054578;28;20041;-70
2022/01/19 11:41:55;;;;;;;7.47;2.70;;;;;;;19.46;44.47;102275.31;5054699;28;20476;-67
2022/01/19 11:44:40;;;;;;;7.88;3.20;;;;;;;19.47;44.71;102285.81;5053417;28;20045;-69
2022/01/19 11:47:08;;;;;;;6.20;2.70;;;;;;;19.50;44.22;102274.16;5053932;28;20063;-67
2022/01/19 11:49:46;;;;;;;5.85;2.70;;;;;;;19.50;44.45;102269.75;5054639;28;20443;-68
2022/01/19 11:52:11;;;;;;;6.90;3.08;;;;;;;19.51;44.54;102266.13;5053594;28;20489;-68
2022/01/19 11:54:37;;;;;;;6.30;2.80;;;;;;;19.54;43.90;102265.09;5054661;28;20041;-70
2022/01/19 11:57:07;;;;;;;6.22;2.67;;;;;;;19.54;44.22;102260.63;5054651;28;20067;-69
2022/01/19 11:59:47;;;;;;;7.85;2.95;;;;;;;19.55;44.45;102257.06;5053438;28;20191;-69
2022/01/19 12:02:21;;;;;;;6.70;2.72;;;;;;;19.52;43.93;102248.50;5053871;28;20103;-69
2022/01/19 12:04:47;;;;;;;;;;;;;;;19.53;44.17;102248.34;5054513;28;20025;-68
2022/01/19 12:07:50;;;;;;;6.13;2.65;;;;;;;19.55;44.33;102245.63;5053235;28;19938;-68
2022/01/19 12:10:22;;;;;;;7.35;3.10;;;;;;;19.56;43.99;102242.03;5042372;28;20105;-66
2022/01/19 12:13:27;;;;;;;6.88;3.67;;;;;;;19.55;42.80;102245.63;5054019;28;20115;-67
2022/01/19 12:19:10;;;;;;;7.18;3.88;;;;;;;19.55;43.11;102230.63;5053533;28;20459;-68
2022/01/19 12:21:43;;;;;;;5.90;3.00;;;;;;;19.55;43.71;102225.31;5053025;28;20492;-68
2022/01/19 12:24:16;;;;;;;9.73;4.47;;;;;;;19.53;42.57;102208.69;5053733;28;20059;-69
2022/01/19 12:26:57;;;;;;;7.70;3.13;;;;;;;19.53;43.12;102199.91;5054481;28;20021;-67
2022/01/19 12:29:38;;;;;;;5.93;2.90;;;;;;;19.58;43.49;102195.16;5052710;28;20028;-63
2022/01/19 12:32:03;;;;;;;6.90;3.03;;;;;;;19.60;43.82;102187.13;5055612;28;20068;-69
2022/01/19 12:34:46;;;;;;;6.23;3.27;;;;;;;19.63;43.55;102187.81;5052847;28;20106;-64
2022/01/19 12:37:34;;;;;;;6.97;3.40;;;;;;;19.65;43.80;102195.63;5053618;28;20045;-68
2022/01/19 12:40:01;;;;;;;8.15;3.10;;;;;;;19.63;43.94;102197.50;5053290;28;20382;-67
2022/01/19 12:42:41;;;;;;;8.68;3.40;;;;;;;19.63;43.89;102189.59;5052774;28;20110;-66
2022/01/19 12:45:31;;;;;;;6.65;3.45;;;;;;;19.58;43.93;102188.09;5053794;28;20045;-67
2022/01/19 12:47:59;;;;;;;6.25;3.40;;;;;;;19.62;43.69;102179.97;5053510;28;20400;-70
2022/01/19 12:50:36;;;;;;;7.72;3.75;;;;;;;19.60;43.72;102166.84;5052116;28;20060;-65
2022/01/19 12:53:26;;;;;;;6.25;3.03;;;;;;;19.55;43.96;102155.72;5053461;28;20108;-65
2022/01/19 12:55:59;;;;;;;9.43;3.45;;;;;;;19.49;44.24;102153.50;5052135;28;20041;-63
2022/01/19 12:58:34;;;;;;;6.20;3.13;;;;;;;19.43;44.39;102157.38;5052301;28;20021;-65
2022/01/19 13:01:04;;;;;;;6.90;3.47;;;;;;;19.39;44.36;102153.25;5053144;28;20057;-65
2022/01/19 13:03:33;;;;;;;6.43;3.38;;;;;;;19.33;44.65;102146.56;5052052;28;20499;-65